createdAt,value
2022-11-06T00:00:49.352Z,4.03
2022-11-06T00:03:53.868Z,3.38
2022-11-06T00:06:55.109Z,4.05
2022-11-06T00:09:56.333Z,4.18
2022-11-06T00:12:57.562Z,4.10
2022-11-06T00:16:02.261Z,2.78
2022-11-06T00:19:03.525Z,3.50
2022-11-06T00:22:05.333Z,3.63
2022-11-06T00:25:07.160Z,3.17
2022-11-06T00:28:08.728Z,3.55
2022-11-06T00:31:11.761Z,3.63
2022-11-06T00:34:12.984Z,3.22
2022-11-06T00:37:14.248Z,4.15
2022-11-06T00:40:15.955Z,3.45
2022-11-06T00:43:17.245Z,3.72
2022-11-06T00:46:18.905Z,3.67
2022-11-06T00:49:20.185Z,4.25
2022-11-06T00:52:21.406Z,3.58
2022-11-06T00:55:22.656Z,3.35
2022-11-06T00:58:23.874Z,3.95
2022-11-06T01:01:26.346Z,3.70
2022-11-06T01:04:27.680Z,4.00
2022-11-06T01:07:28.948Z,3.90
2022-11-06T01:10:30.172Z,2.88
2022-11-06T01:13:31.400Z,3.22
2022-11-06T01:16:32.683Z,2.92
2022-11-06T01:19:33.927Z,3.67
2022-11-06T01:22:35.167Z,2.90
2022-11-06T01:25:36.384Z,2.33
2022-11-06T01:28:38.029Z,2.28
2022-11-06T01:31:39.659Z,2.33
2022-11-06T01:34:40.902Z,3.05
2022-11-06T01:37:42.643Z,2.80
2022-11-06T01:40:44.521Z,2.53
2022-11-06T01:43:54.227Z,3.17
2022-11-06T01:46:55.463Z,2.42
2022-11-06T01:50:00.469Z,3.17
2022-11-06T01:53:02.464Z,2.55
2022-11-06T01:56:05.418Z,3.35
2022-11-06T01:59:07.562Z,3.45
2022-11-06T02:02:08.899Z,2.88
2022-11-06T02:05:10.253Z,3.67
2022-11-06T02:08:13.227Z,3.20
2022-11-06T02:11:14.625Z,2.95
2022-11-06T02:14:21.672Z,2.63
2022-11-06T02:17:34.921Z,2.80
2022-11-06T02:21:08.367Z,3.13
2022-11-06T02:24:09.710Z,3.70
2022-11-06T02:27:12.791Z,2.00
2022-11-06T02:30:15.546Z,2.80
2022-11-06T02:33:19.043Z,2.78
2022-11-06T02:36:23.098Z,2.15
2022-11-06T02:39:26.154Z,2.35
2022-11-06T02:42:29.303Z,2.70
2022-11-06T02:45:31.867Z,1.98
2022-11-06T02:48:37.368Z,2.42
2022-11-06T02:51:41.876Z,2.80
2022-11-06T02:54:45.865Z,2.03
2022-11-06T02:57:50.383Z,2.67
2022-11-06T03:00:58.236Z,2.22
2022-11-06T03:04:02.896Z,2.20
2022-11-06T03:07:08.365Z,2.30
2022-11-06T03:10:09.898Z,2.17
2022-11-06T03:13:19.705Z,2.22
2022-11-06T03:16:47.119Z,2.88
2022-11-06T03:19:51.804Z,2.10
2022-11-06T03:23:05.786Z,2.38
2022-11-06T03:26:19.826Z,2.55
2022-11-06T03:29:25.800Z,2.72
2022-11-06T03:32:30.604Z,2.17
2022-11-06T03:35:38.482Z,1.92
2022-11-06T03:39:00.299Z,2.17
2022-11-06T03:42:01.502Z,2.20
2022-11-06T03:45:06.271Z,1.88
2022-11-06T03:48:13.984Z,2.60
2022-11-06T03:51:15.538Z,2.75
2022-11-06T03:54:37.164Z,3.13
2022-11-06T03:57:44.896Z,2.20
2022-11-06T04:00:46.252Z,2.97
2022-11-06T04:03:50.559Z,2.58
2022-11-06T04:06:59.993Z,2.38
2022-11-06T04:10:21.926Z,2.90
2022-11-06T04:13:42.729Z,3.45
2022-11-06T04:16:47.877Z,2.00
2022-11-06T04:19:51.223Z,2.42
2022-11-06T04:22:59.757Z,2.65
2022-11-06T04:26:33.789Z,2.70
2022-11-06T04:29:52.584Z,2.20
2022-11-06T04:33:06.666Z,2.40
2022-11-06T04:36:15.038Z,2.25
2022-11-06T04:39:16.296Z,2.03
2022-11-06T04:42:37.908Z,2.53
2022-11-06T04:45:41.251Z,3.03
2022-11-06T04:48:43.210Z,2.38
2022-11-06T04:51:45.878Z,2.13
2022-11-06T04:54:47.399Z,2.03
2022-11-06T04:57:48.780Z,3.53
2022-11-06T05:00:50.732Z,2.83
2022-11-06T05:03:52.091Z,2.05
2022-11-06T05:06:53.326Z,2.35
2022-11-06T05:09:54.596Z,2.47
2022-11-06T05:12:55.828Z,2.45
2022-11-06T05:15:57.716Z,2.75
2022-11-06T05:18:58.980Z,2.13
2022-11-06T05:22:18.787Z,2.65
2022-11-06T05:25:20.069Z,2.45
2022-11-06T05:28:21.302Z,2.90
2022-11-06T05:31:22.584Z,2.67
2022-11-06T05:34:23.983Z,2.22
2022-11-06T05:37:25.278Z,3.08
2022-11-06T05:40:26.530Z,2.65
2022-11-06T05:43:27.776Z,3.40
2022-11-06T05:46:47.771Z,2.30
2022-11-06T05:49:50.280Z,2.45
2022-11-06T05:52:51.604Z,2.67
2022-11-06T05:55:52.842Z,3.50
2022-11-06T05:58:54.188Z,2.55
2022-11-06T06:01:56.218Z,2.70
2022-11-06T06:04:57.520Z,2.50
2022-11-06T06:07:58.846Z,2.83
2022-11-06T06:11:00.085Z,3.33
2022-11-06T06:14:01.749Z,2.00
2022-11-06T06:17:03.012Z,2.95
2022-11-06T06:20:04.462Z,3.22
2022-11-06T06:23:09.341Z,3.30
2022-11-06T06:26:10.902Z,3.83
2022-11-06T06:29:12.120Z,5.82
2022-11-06T06:32:13.365Z,5.80
2022-11-06T06:35:14.672Z,3.25
2022-11-06T06:38:16.311Z,2.53
2022-11-06T06:41:17.687Z,2.40
2022-11-06T06:44:18.920Z,2.85
2022-11-06T06:47:20.572Z,2.53
2022-11-06T06:50:22.490Z,1.75
2022-11-06T06:53:24.136Z,3.28
2022-11-06T06:56:25.360Z,2.22
2022-11-06T06:59:28.106Z,2.15
2022-11-06T07:02:29.443Z,3.05
2022-11-06T07:05:31.098Z,3.17
2022-11-06T07:08:32.830Z,3.13
2022-11-06T07:11:34.082Z,4.38
2022-11-06T07:14:35.349Z,3.53
2022-11-06T07:17:36.679Z,3.03
2022-11-06T07:20:39.711Z,3.28
2022-11-06T07:23:41.037Z,2.47
2022-11-06T07:26:42.273Z,2.63
2022-11-06T07:29:43.557Z,2.45
2022-11-06T07:32:44.834Z,2.00
2022-11-06T07:35:46.071Z,2.53
2022-11-06T07:38:47.301Z,2.50
2022-11-06T07:41:48.544Z,2.60
2022-11-06T07:44:54.107Z,2.63
2022-11-06T07:47:59.314Z,2.42
2022-11-06T07:51:04.894Z,2.15
2022-11-06T07:54:06.134Z,3.53
2022-11-06T07:57:07.384Z,2.42
2022-11-06T08:00:09.373Z,2.72
2022-11-06T08:03:10.635Z,2.65
2022-11-06T08:06:12.028Z,2.13
2022-11-06T08:09:13.444Z,2.08
2022-11-06T08:12:14.694Z,2.10
2022-11-06T08:15:15.948Z,1.95
2022-11-06T08:18:17.533Z,2.90
2022-11-06T08:21:19.044Z,2.40
2022-11-06T08:24:22.045Z,1.77
2022-11-06T08:27:23.615Z,3.00
2022-11-06T08:30:25.468Z,2.20
2022-11-06T08:33:26.750Z,2.55
2022-11-06T08:36:28.091Z,2.80
2022-11-06T08:39:29.699Z,3.63
2022-11-06T08:42:30.932Z,2.22
2022-11-06T08:45:32.248Z,1.77
2022-11-06T08:48:33.657Z,2.80
2022-11-06T08:51:34.985Z,2.58
2022-11-06T08:54:36.300Z,3.42
2022-11-06T08:57:37.536Z,2.80
2022-11-06T09:00:38.894Z,3.65
2022-11-06T09:03:40.221Z,2.40
2022-11-06T09:06:41.427Z,3.55
2022-11-06T09:09:42.677Z,3.83
2022-11-06T09:12:43.974Z,3.38
2022-11-06T09:15:45.233Z,3.78
2022-11-06T09:18:46.501Z,2.75
2022-11-06T09:21:53.476Z,3.80
2022-11-06T09:25:03.675Z,3.65
2022-11-06T09:28:05.582Z,2.75
2022-11-06T09:31:07.025Z,3.67
2022-11-06T09:34:08.301Z,2.38
2022-11-06T09:37:09.539Z,3.60
2022-11-06T09:40:15.481Z,4.13
2022-11-06T09:43:50.130Z,2.80
2022-11-06T09:46:48.188Z,3.47
2022-11-06T09:49:50.691Z,2.78
2022-11-06T09:52:55.312Z,3.97
2022-11-06T09:55:57.658Z,3.58
2022-11-06T09:59:00.322Z,3.97
2022-11-06T10:02:01.925Z,3.25
2022-11-06T10:05:12.435Z,3.28
2022-11-06T10:08:31.853Z,3.00
2022-11-06T10:11:51.777Z,3.15
2022-11-06T10:15:13.317Z,4.28
2022-11-06T10:18:34.811Z,3.28
2022-11-06T10:21:42.224Z,3.47
2022-11-06T10:24:49.695Z,3.80
2022-11-06T10:27:53.687Z,3.53
2022-11-06T10:31:03.325Z,3.33
2022-11-06T10:34:07.523Z,3.05
2022-11-06T10:37:12.043Z,3.13
2022-11-06T10:40:18.577Z,2.80
2022-11-06T10:43:22.888Z,2.70
2022-11-06T10:46:30.165Z,2.47
2022-11-06T10:49:51.550Z,2.83
2022-11-06T10:53:14.796Z,2.60
2022-11-06T10:56:35.259Z,2.25
2022-11-06T10:59:36.880Z,2.28
2022-11-06T11:02:40.712Z,1.77
2022-11-06T11:08:45.155Z,1.80
2022-11-06T11:11:48.900Z,1.98
2022-11-06T11:15:09.087Z,1.90
2022-11-06T11:18:13.846Z,1.85
2022-11-06T11:21:18.375Z,1.98
2022-11-06T11:24:19.681Z,1.83
2022-11-06T11:27:21.021Z,2.05
2022-11-06T11:30:23.510Z,2.30
2022-11-06T11:33:26.057Z,2.20
2022-11-06T11:36:46.538Z,2.00
2022-11-06T11:39:47.811Z,2.42
2022-11-06T11:42:49.269Z,2.35
2022-11-06T11:46:26.149Z,2.13
2022-11-06T11:49:28.896Z,2.30
2022-11-06T11:52:30.154Z,2.00
2022-11-06T11:55:36.325Z,1.95
2022-11-06T11:58:37.667Z,2.60
2022-11-06T12:01:40.326Z,2.00
2022-11-06T12:04:43.800Z,2.05
2022-11-06T12:07:48.644Z,2.13
2022-11-06T12:10:50.102Z,2.00
2022-11-06T12:14:10.364Z,2.08
2022-11-06T12:17:17.348Z,2.05
2022-11-06T12:20:21.136Z,2.20
2022-11-06T12:23:29.584Z,1.95
2022-11-06T12:26:56.826Z,1.98
2022-11-06T12:29:58.077Z,1.90
2022-11-06T12:33:06.041Z,1.90
2022-11-06T12:36:08.113Z,1.83
2022-11-06T12:39:16.222Z,1.73
2022-11-06T12:42:18.464Z,1.70
2022-11-06T12:45:20.326Z,1.70
2022-11-06T12:48:35.628Z,1.83
2022-11-06T12:51:36.865Z,1.85
2022-11-06T12:54:53.261Z,1.65
2022-11-06T12:57:59.333Z,1.35
2022-11-06T13:01:06.644Z,2.00
2022-11-06T13:04:13.896Z,1.80
2022-11-06T13:07:27.199Z,1.50
2022-11-06T13:10:48.721Z,2.30
2022-11-06T13:13:52.991Z,1.50
2022-11-06T13:20:16.084Z,2.10
2022-11-06T13:23:26.603Z,1.40
2022-11-06T13:26:35.460Z,1.27
2022-11-06T13:29:37.443Z,1.60
2022-11-06T13:32:40.642Z,1.33
2022-11-06T13:35:43.679Z,1.33
2022-11-06T13:38:47.495Z,1.50
2022-11-06T13:41:48.753Z,1.38
2022-11-06T13:44:50.576Z,1.05
2022-11-06T13:48:04.461Z,1.40
2022-11-06T13:51:12.484Z,1.42
2022-11-06T13:54:22.605Z,0.98
2022-11-06T13:57:42.559Z,1.15
2022-11-06T14:01:02.539Z,1.33
2022-11-06T14:04:09.974Z,1.35
2022-11-06T14:07:11.974Z,1.65
2022-11-06T14:10:21.341Z,1.77
2022-11-06T14:13:27.342Z,1.38
2022-11-06T14:16:30.253Z,1.98
2022-11-06T14:19:31.587Z,2.15
2022-11-06T14:22:33.860Z,1.65
2022-11-06T14:25:41.190Z,1.30
2022-11-06T14:28:43.680Z,2.38
2022-11-06T14:32:03.575Z,1.98
2022-11-06T14:35:23.525Z,2.42
2022-11-06T14:38:33.181Z,1.48
2022-11-06T14:41:34.543Z,1.85
2022-11-06T14:44:40.854Z,1.58
2022-11-06T14:47:53.043Z,1.60
2022-11-06T14:50:54.434Z,1.80
2022-11-06T14:53:57.457Z,2.30
2022-11-06T14:56:58.749Z,2.30
2022-11-06T15:00:00.348Z,2.08
2022-11-06T15:03:03.088Z,1.55
2022-11-06T15:06:24.613Z,2.10
2022-11-06T15:09:26.348Z,1.60
2022-11-06T15:12:59.806Z,2.20
2022-11-06T15:16:03.556Z,3.90
2022-11-06T15:19:06.372Z,1.83
2022-11-06T15:22:16.904Z,1.70
2022-11-06T15:25:27.428Z,1.70
2022-11-06T15:28:31.947Z,1.63
2022-11-06T15:34:40.535Z,2.13
2022-11-06T15:37:43.953Z,1.92
2022-11-06T15:43:49.297Z,1.90
2022-11-06T15:46:58.190Z,1.92
2022-11-06T15:50:19.814Z,2.20
2022-11-06T15:53:23.150Z,1.70
2022-11-06T15:56:26.452Z,1.95
2022-11-06T15:59:27.711Z,2.45
2022-11-06T16:02:29.261Z,1.70
2022-11-06T16:05:31.671Z,2.13
2022-11-06T16:08:32.964Z,3.20
2022-11-06T16:11:34.501Z,2.60
2022-11-06T16:14:39.918Z,3.67
2022-11-06T16:17:46.089Z,2.47
2022-11-06T16:20:49.100Z,3.67
2022-11-06T16:24:13.443Z,2.78
2022-11-06T16:30:25.372Z,4.75
2022-11-06T16:36:29.136Z,4.05
2022-11-06T16:39:47.697Z,2.70
2022-11-06T16:43:00.317Z,2.70
2022-11-06T16:46:07.727Z,3.55
2022-11-06T16:49:30.662Z,2.22
2022-11-06T16:52:33.197Z,2.33
2022-11-06T16:55:34.941Z,2.80
2022-11-06T16:59:02.591Z,3.30
2022-11-06T17:02:04.881Z,2.50
2022-11-06T17:05:11.432Z,3.13
2022-11-06T17:08:18.591Z,3.55
2022-11-06T17:11:21.775Z,4.45
2022-11-06T17:14:23.762Z,2.80
2022-11-06T17:17:25.858Z,2.20
2022-11-06T17:20:27.656Z,3.25
2022-11-06T17:23:29.759Z,2.40
2022-11-06T17:26:32.101Z,2.65
2022-11-06T17:29:35.935Z,2.60
2022-11-06T17:32:37.218Z,3.30
2022-11-06T17:35:38.584Z,3.17
2022-11-06T17:38:39.813Z,4.15
2022-11-06T17:41:41.256Z,4.05
2022-11-06T17:44:42.490Z,2.70
2022-11-06T17:47:43.729Z,2.40
2022-11-06T17:51:03.753Z,1.98
2022-11-06T17:54:05.022Z,2.58
2022-11-06T17:57:07.309Z,2.20
2022-11-06T18:00:10.300Z,2.70
2022-11-06T18:03:21.625Z,3.08
2022-11-06T18:06:23.092Z,2.58
2022-11-06T18:09:24.741Z,2.28
2022-11-06T18:12:27.490Z,1.77
2022-11-06T18:15:28.798Z,2.17
2022-11-06T18:18:30.150Z,1.83
2022-11-06T18:21:31.383Z,1.23
2022-11-06T18:24:32.809Z,1.25
2022-11-06T18:27:34.084Z,2.22
2022-11-06T18:30:37.401Z,2.03
2022-11-06T18:33:38.763Z,1.73
2022-11-06T18:36:40.000Z,3.95
2022-11-06T18:39:41.355Z,2.30
2022-11-06T18:42:42.659Z,1.88
2022-11-06T18:45:43.940Z,2.53
2022-11-06T18:48:45.264Z,3.08
2022-11-06T18:51:46.585Z,2.40
2022-11-06T18:54:47.851Z,2.10
2022-11-06T18:57:49.112Z,2.40
2022-11-06T19:00:50.350Z,2.22
2022-11-06T19:03:51.716Z,1.77
2022-11-06T19:06:53.103Z,2.30
2022-11-06T19:09:54.341Z,2.28
2022-11-06T19:12:59.298Z,2.47
2022-11-06T19:16:00.951Z,3.10
2022-11-06T19:22:10.594Z,2.35
2022-11-06T19:25:11.852Z,2.60
2022-11-06T19:28:13.463Z,2.55
2022-11-06T19:31:15.089Z,2.08
2022-11-06T19:34:16.712Z,2.47
2022-11-06T19:37:17.929Z,2.10
2022-11-06T19:40:20.013Z,2.33
2022-11-06T19:43:21.277Z,1.77
2022-11-06T19:46:26.059Z,2.38
2022-11-06T19:49:28.411Z,2.13
2022-11-06T19:52:41.532Z,2.10
2022-11-06T19:55:45.848Z,2.40
2022-11-06T19:58:48.502Z,2.22
2022-11-06T20:01:49.882Z,2.53
2022-11-06T20:04:51.156Z,2.08
2022-11-06T20:07:52.466Z,2.45
2022-11-06T20:10:53.745Z,2.47
2022-11-06T20:13:55.034Z,2.20
2022-11-06T20:16:56.310Z,2.22
2022-11-06T20:19:57.596Z,1.92
2022-11-06T20:22:58.866Z,2.40
2022-11-06T20:26:00.171Z,2.42
2022-11-06T20:29:01.459Z,1.90
2022-11-06T20:32:02.744Z,2.67
2022-11-06T20:35:05.687Z,1.92
2022-11-06T20:38:07.410Z,2.63
2022-11-06T20:41:08.632Z,1.95
2022-11-06T20:44:09.884Z,2.20
2022-11-06T20:47:11.352Z,2.22
2022-11-06T20:50:12.626Z,2.30
2022-11-06T20:53:14.031Z,2.65
2022-11-06T20:56:16.690Z,2.38
2022-11-06T20:59:18.237Z,2.53
2022-11-06T21:02:19.761Z,2.25
2022-11-06T21:05:21.337Z,2.70
2022-11-06T21:08:22.884Z,2.42
2022-11-06T21:11:25.856Z,2.80
2022-11-06T21:14:27.117Z,3.85
2022-11-06T21:17:28.383Z,3.15
2022-11-06T21:20:29.653Z,2.60
2022-11-06T21:23:30.912Z,3.10
2022-11-06T21:26:33.656Z,3.05
2022-11-06T21:29:34.921Z,2.58
2022-11-06T21:32:36.176Z,3.20
2022-11-06T21:35:37.552Z,2.50
2022-11-06T21:38:39.258Z,2.20
2022-11-06T21:41:40.603Z,1.95
2022-11-06T21:44:42.100Z,1.92
2022-11-06T21:47:43.340Z,1.73
2022-11-06T21:50:44.617Z,1.83
2022-11-06T21:54:04.440Z,1.63
2022-11-06T21:57:05.660Z,2.53
2022-11-06T22:00:08.610Z,2.08
2022-11-06T22:03:12.306Z,2.75
2022-11-06T22:06:15.835Z,2.55
2022-11-06T22:09:21.956Z,2.40
2022-11-06T22:12:25.940Z,2.47
2022-11-06T22:15:27.269Z,2.45
2022-11-06T22:18:28.564Z,2.17
2022-11-06T22:21:30.501Z,2.58
2022-11-06T22:24:31.742Z,2.42
2022-11-06T22:27:35.644Z,2.42
2022-11-06T22:30:40.932Z,2.28
2022-11-06T22:33:42.218Z,2.50
2022-11-06T22:36:43.894Z,1.98
2022-11-06T22:39:47.477Z,1.85
2022-11-06T22:42:50.104Z,2.38
2022-11-06T22:45:55.571Z,2.00
2022-11-06T22:48:57.275Z,2.00
2022-11-06T22:51:58.561Z,2.28
2022-11-06T22:54:59.802Z,2.17
2022-11-06T22:58:01.035Z,2.08
2022-11-06T23:01:02.280Z,2.72
2022-11-06T23:04:04.697Z,2.20
2022-11-06T23:07:05.979Z,2.80
2022-11-06T23:10:07.715Z,3.03
2022-11-06T23:13:09.548Z,2.10
2022-11-06T23:16:11.964Z,2.08
2022-11-06T23:19:14.739Z,2.42
2022-11-06T23:22:34.418Z,2.13
2022-11-06T23:25:35.940Z,2.63
2022-11-06T23:28:37.158Z,2.10
2022-11-06T23:31:38.439Z,1.90
2022-11-06T23:34:39.700Z,1.98
2022-11-06T23:37:41.341Z,1.92
2022-11-06T23:40:42.603Z,1.98
2022-11-06T23:43:43.829Z,2.85
2022-11-06T23:46:45.059Z,2.10
2022-11-06T23:49:46.292Z,1.80
2022-11-06T23:52:47.545Z,1.90
2022-11-06T23:55:48.805Z,1.70
2022-11-06T23:58:50.040Z,2.10
